Time;durP1;ratioP1;P1;durP2;ratioP2;P2;SDS_P1;SDS_P2;PMS_P1;PMS_P2;Temp;Humidity;BMP_temperature;BMP_pressure;BME280_temperature;BME280_humidity;BME280_pressure;Samples;Min_cycle;Max_cycle;Signal;HPM_P1;HPM_P2
2021/07/08 16:17:42;;;;;;;6.42;2.37;;;;;;;29.57;39.55;99807.42;1814248;77;25522;-63
2021/07/08 16:20:17;;;;;;;4.70;2.87;;;;;;;29.73;39.52;99806.99;1862382;76;22144;-62
2021/07/08 16:23:12;;;;;;;6.72;2.60;;;;;;;29.86;39.44;99804.03;1868525;76;22272;-61
2021/07/08 16:25:47;;;;;;;6.37;2.47;;;;;;;29.79;39.88;99804.02;1855263;76;22590;-62
2021/07/08 16:28:41;;;;;;;7.83;2.80;;;;;;;29.72;40.16;99809.76;1858992;75;22235;-63
2021/07/08 16:31:20;;;;;;;8.68;2.75;;;;;;;29.69;40.18;99812.08;1834918;76;28320;-62
2021/07/08 16:33:56;;;;;;;7.10;2.92;;;;;;;29.57;40.23;99813.59;1853505;76;22191;-62
2021/07/08 16:36:31;;;;;;;5.33;2.70;;;;;;;29.45;40.34;99811.59;1852105;76;22352;-60
2021/07/08 16:39:14;;;;;;;5.30;2.33;;;;;;;29.42;40.77;99807.77;1858811;76;22616;-64
2021/07/08 16:42:09;;;;;;;7.47;2.67;;;;;;;29.36;40.60;99812.06;1859121;76;22189;-65
2021/07/08 16:44:44;;;;;;;6.70;2.60;;;;;;;29.28;40.91;99819.59;1834792;76;27998;-61
2021/07/08 16:47:19;;;;;;;8.57;2.40;;;;;;;29.26;40.85;99824.13;1840572;76;27967;-63
2021/07/08 16:49:54;;;;;;;8.00;2.27;;;;;;;29.25;40.81;99823.75;1852775;76;22175;-63
2021/07/08 16:52:29;;;;;;;5.55;2.50;;;;;;;29.21;40.85;99814.61;1852379;76;22281;-63
2021/07/08 16:55:08;;;;;;;6.65;2.50;;;;;;;29.18;41.00;99819.21;1858151;76;28400;-63
2021/07/08 16:57:43;;;;;;;5.45;2.27;;;;;;;29.11;40.92;99826.67;1855864;76;22204;-62
2021/07/08 17:00:21;;;;;;;7.15;2.37;;;;;;;29.04;40.93;99815.92;1852510;76;28035;-61
2021/07/08 17:02:55;;;;;;;3.87;2.05;;;;;;;29.02;41.16;99820.45;1856323;76;22304;-61
2021/07/08 17:05:31;;;;;;;8.38;2.60;;;;;;;28.93;41.29;99819.61;1854581;76;27903;-61
2021/07/08 17:08:26;;;;;;;8.88;2.50;;;;;;;28.93;41.48;99816.95;1870491;76;22560;-63
2021/07/08 17:11:01;;;;;;;5.17;2.20;;;;;;;28.86;41.63;99828.83;1870676;76;22113;-62
2021/07/08 17:13:36;;;;;;;6.15;2.08;;;;;;;28.76;41.81;99825.30;1870641;76;22203;-63
2021/07/08 17:16:10;;;;;;;5.12;2.10;;;;;;;28.71;41.45;99837.95;1870693;76;22164;-62
2021/07/08 17:18:45;;;;;;;3.77;2.00;;;;;;;28.64;41.43;99844.50;1870674;76;22140;-63
2021/07/08 17:21:40;;;;;;;5.85;2.35;;;;;;;28.55;41.50;99829.04;1870607;76;22560;-64
2021/07/08 17:24:15;;;;;;;9.13;2.35;;;;;;;28.59;41.36;99833.25;1870643;76;22124;-63
2021/07/08 17:26:51;;;;;;;5.92;2.45;;;;;;;28.56;41.77;99827.62;1870654;76;22132;-63
2021/07/08 17:29:27;;;;;;;11.80;2.60;;;;;;;28.46;41.90;99826.83;1870382;76;22167;-62
2021/07/08 17:32:02;;;;;;;4.70;2.50;;;;;;;28.35;42.10;99827.33;1889909;76;22184;-63
2021/07/08 17:34:43;;;;;;;9.13;2.70;;;;;;;28.28;42.42;99836.04;1869788;76;22197;-61
2021/07/08 17:37:23;;;;;;;7.45;3.17;;;;;;;28.19;42.63;99831.19;1869790;76;22559;-62
2021/07/08 17:40:02;;;;;;;7.60;2.60;;;;;;;28.12;42.63;99833.27;1873842;76;27948;-63
2021/07/08 17:42:37;;;;;;;7.62;2.98;;;;;;;28.08;42.75;99835.66;1870669;76;22152;-61
2021/07/08 17:45:13;;;;;;;8.50;2.37;;;;;;;28.01;42.98;99832.92;1889892;76;22184;-61
2021/07/08 17:48:09;;;;;;;6.53;2.50;;;;;;;27.93;42.85;99837.70;1889885;76;22163;-62
2021/07/08 17:50:44;;;;;;;4.70;2.22;;;;;;;27.86;43.08;99838.92;1854825;76;27881;-63
2021/07/08 17:53:19;;;;;;;7.20;2.42;;;;;;;27.81;43.03;99835.17;1870725;76;22174;-63
2021/07/08 17:55:53;;;;;;;5.25;2.27;;;;;;;27.72;43.25;99838.20;1870647;76;22136;-63
2021/07/08 17:58:29;;;;;;;9.43;2.60;;;;;;;27.65;43.35;99852.67;1854615;76;28379;-63
2021/07/08 18:01:11;;;;;;;5.97;2.22;;;;;;;27.58;43.37;99864.04;1889929;76;22181;-62
2021/07/08 18:03:46;;;;;;;8.13;2.08;;;;;;;27.49;43.46;99850.71;1870594;76;22160;-62
2021/07/08 18:06:21;;;;;;;7.90;2.50;;;;;;;27.41;43.66;99859.48;1870657;76;22160;-62
2021/07/08 18:09:04;;;;;;;4.83;2.60;;;;;;;27.33;43.93;99860.28;1889879;76;22188;-63
2021/07/08 18:11:40;;;;;;;5.90;2.40;;;;;;;27.25;44.18;99862.41;1870611;76;22149;-62
2021/07/08 18:14:17;;;;;;;9.53;2.30;;;;;;;27.17;44.39;99865.80;1873832;76;27912;-62
2021/07/08 18:16:52;;;;;;;7.80;2.22;;;;;;;27.13;44.57;99867.73;1873886;76;22197;-63
2021/07/08 18:19:26;;;;;;;7.78;2.58;;;;;;;27.06;44.82;99868.91;1853778;76;22201;-64
2021/07/08 18:22:01;;;;;;;8.10;2.75;;;;;;;26.99;45.49;99869.63;1856268;76;22213;-62
2021/07/08 18:24:38;;;;;;;11.48;3.27;;;;;;;26.93;45.74;99873.87;1854048;76;22609;-62
2021/07/08 18:27:13;;;;;;;8.13;3.27;;;;;;;26.88;45.84;99874.52;1852281;76;22151;-62
2021/07/08 18:29:48;;;;;;;8.88;3.20;;;;;;;26.81;46.26;99881.00;1854970;76;22163;-62
2021/07/08 18:32:29;;;;;;;13.62;3.55;;;;;;;26.73;46.89;99880.45;1859385;76;22183;-63
2021/07/08 18:35:06;;;;;;;7.75;4.78;;;;;;;26.68;47.17;99883.75;1855760;76;22128;-63
2021/07/08 18:37:41;;;;;;;10.45;5.47;;;;;;;26.61;47.41;99891.07;1808045;77;22614;-62
2021/07/08 18:40:20;;;;;;;14.10;6.33;;;;;;;26.55;47.70;99889.54;1853266;76;22163;-64
2021/07/08 18:42:55;;;;;;;8.88;4.58;;;;;;;26.50;47.83;99893.27;1862746;76;22209;-63
2021/07/08 18:45:50;;;;;;;10.03;5.17;;;;;;;26.42;48.07;99894.42;1851255;75;22199;-63
2021/07/08 18:48:31;;;;;;;10.80;4.40;;;;;;;26.36;48.30;99893.83;1859226;76;22234;-63
2021/07/08 18:51:06;;;;;;;11.05;4.42;;;;;;;26.30;48.33;99891.40;1854414;76;22588;-62
2021/07/08 18:53:41;;;;;;;13.08;5.00;;;;;;;26.25;48.47;99888.06;1853041;76;22160;-62
2021/07/08 18:56:17;;;;;;;21.50;5.33;;;;;;;26.19;48.63;99886.06;1852490;76;22178;-62
2021/07/08 18:58:52;;;;;;;21.55;6.58;;;;;;;26.15;48.87;99893.70;1839490;76;28381;-61
2021/07/08 19:01:27;;;;;;;11.88;3.72;;;;;;;26.14;49.39;99891.98;1859772;76;22212;-63
2021/07/08 19:04:04;;;;;;;11.00;3.83;;;;;;;26.12;49.42;99891.18;1841838;76;28008;-61
2021/07/08 19:06:58;;;;;;;14.05;3.83;;;;;;;26.18;49.54;99896.25;1856791;76;22574;-62
2021/07/08 19:09:33;;;;;;;9.88;4.17;;;;;;;26.17;49.90;99894.51;1852980;76;22177;-61
2021/07/08 19:12:27;;;;;;;12.55;3.87;;;;;;;26.17;49.75;99893.19;1852908;76;22206;-61
2021/07/08 19:15:06;;;;;;;9.38;3.33;;;;;;;26.11;49.71;99893.91;1852346;76;22227;-60
2021/07/08 19:18:03;;;;;;;10.48;4.03;;;;;;;26.04;49.58;99898.55;1852881;76;22202;-62
2021/07/08 19:20:40;;;;;;;11.70;4.30;;;;;;;25.97;49.89;99899.70;1851802;76;22203;-63
2021/07/08 19:23:36;;;;;;;9.43;4.35;;;;;;;25.89;50.06;99897.80;1852680;76;22179;-62
2021/07/08 19:26:14;;;;;;;11.30;4.75;;;;;;;25.83;50.33;99903.30;1839538;76;28602;-61
2021/07/08 19:28:47;;;;;;;23.65;4.35;;;;;;;25.80;50.52;99902.06;1850026;76;20288;-62
2021/07/08 19:31:22;;;;;;;14.15;4.62;;;;;;;25.74;50.70;99902.69;1850232;76;22206;-62
2021/07/08 19:34:15;;;;;;;12.35;3.85;;;;;;;25.69;51.06;99902.00;1861533;76;22163;-62
2021/07/08 19:36:50;;;;;;;12.30;4.40;;;;;;;25.65;51.52;99903.51;1855993;76;22120;-60
2021/07/08 19:39:30;;;;;;;13.55;4.40;;;;;;;25.61;51.54;99898.77;1858425;76;22299;-63
2021/07/08 19:42:11;;;;;;;10.98;4.75;;;;;;;25.55;52.04;99896.36;1851449;76;22635;-62
2021/07/08 19:44:47;;;;;;;13.68;4.35;;;;;;;25.51;52.29;99896.05;1838062;76;27925;-62
2021/07/08 19:47:23;;;;;;;9.40;4.17;;;;;;;25.53;52.55;99894.22;1855959;76;22144;-63
2021/07/08 19:49:58;;;;;;;10.20;4.00;;;;;;;25.50;52.69;99891.70;1846006;76;28470;-62
2021/07/08 19:52:35;;;;;;;9.80;4.30;;;;;;;25.51;52.81;99894.73;1852870;76;22188;-62
2021/07/08 19:55:12;;;;;;;12.23;4.97;;;;;;;25.46;53.02;99886.95;1851826;76;22200;-61
2021/07/08 19:58:06;;;;;;;7.60;4.58;;;;;;;25.42;53.35;99884.51;1865912;76;22207;-63
2021/07/08 20:00:41;;;;;;;13.48;4.83;;;;;;;25.38;53.67;99886.37;1845333;76;22180;-61
2021/07/08 20:03:15;;;;;;;16.02;4.87;;;;;;;25.33;53.82;99885.67;1856445;76;22153;-61
2021/07/08 20:05:50;;;;;;;13.62;4.97;;;;;;;25.28;54.03;99883.65;1853524;76;22181;-61
2021/07/08 20:08:25;;;;;;;12.20;4.85;;;;;;;25.25;54.40;99881.98;1855491;76;22168;-61
2021/07/08 20:11:02;;;;;;;15.88;5.83;;;;;;;25.21;54.42;99888.73;1853915;76;22178;-62
2021/07/08 20:13:36;;;;;;;21.52;5.00;;;;;;;25.16;54.52;99890.20;1862465;76;22586;-62
2021/07/08 20:16:33;;;;;;;33.02;5.05;;;;;;;25.11;54.42;99894.75;1863730;76;22170;-62
2021/07/08 20:19:09;;;;;;;11.28;4.03;;;;;;;25.08;54.49;99889.58;1853795;76;22181;-64
2021/07/08 20:22:09;;;;;;;14.15;5.03;;;;;;;25.05;54.31;99892.33;1853049;76;22188;-63
2021/07/08 20:24:44;;;;;;;9.38;4.03;;;;;;;25.04;53.82;99888.83;1856559;76;22151;-63
2021/07/08 20:27:38;;;;;;;13.18;4.20;;;;;;;25.01;53.26;99892.91;1857006;76;22161;-62
2021/07/08 20:30:13;;;;;;;12.53;3.95;;;;;;;24.98;53.71;99893.44;1862473;76;22136;-64
2021/07/08 20:32:48;;;;;;;14.95;5.00;;;;;;;24.93;53.36;99899.34;1856110;76;20378;-63
2021/07/08 20:35:29;;;;;;;19.37;4.97;;;;;;;24.88;53.76;99893.77;1851536;76;22615;-62
2021/07/08 20:38:04;;;;;;;29.57;4.72;;;;;;;24.86;52.95;99902.19;1864266;76;22189;-64
2021/07/08 20:40:45;;;;;;;17.05;4.30;;;;;;;24.82;52.83;99899.23;1852362;76;22705;-63
2021/07/08 20:43:22;;;;;;;18.73;4.35;;;;;;;24.78;52.75;99894.98;1837056;76;28051;-64
2021/07/08 20:45:57;;;;;;;15.00;4.12;;;;;;;24.77;52.91;99891.91;1861057;76;22222;-62
2021/07/08 20:48:33;;;;;;;14.30;3.17;;;;;;;24.76;53.43;99906.50;1852521;76;22359;-63
2021/07/08 20:51:08;;;;;;;15.13;4.00;;;;;;;24.73;53.06;99909.22;1855310;76;20113;-62
2021/07/08 20:53:49;;;;;;;7.80;2.87;;;;;;;24.68;53.05;99910.70;1851887;76;22159;-63
2021/07/08 20:56:25;;;;;;;11.08;4.05;;;;;;;24.64;53.27;99909.06;1854464;76;22692;-63
2021/07/08 20:58:59;;;;;;;4.33;2.37;;;;;;;24.61;53.50;99903.43;1889023;76;22152;-63
2021/07/08 21:01:34;;;;;;;11.40;3.12;;;;;;;24.59;53.81;99909.20;1888349;76;22189;-61
2021/07/08 21:04:10;;;;;;;9.80;2.90;;;;;;;24.55;53.98;99908.02;1853623;76;28336;-61
2021/07/08 21:06:51;;;;;;;7.03;3.10;;;;;;;24.53;54.36;99915.16;1889042;76;22168;-64
2021/07/08 21:09:32;;;;;;;8.20;3.30;;;;;;;24.52;54.49;99914.72;1889307;76;22168;-61
2021/07/08 21:12:07;;;;;;;7.95;3.37;;;;;;;24.47;54.65;99914.43;1873649;76;38382;-63
2021/07/08 21:14:48;;;;;;;6.28;3.00;;;;;;;24.45;54.88;99909.65;1869773;76;22140;-62
2021/07/08 21:17:22;;;;;;;7.08;3.02;;;;;;;24.43;54.75;99919.34;1862182;76;22140;-63
2021/07/08 21:19:57;;;;;;;14.25;3.25;;;;;;;24.39;54.94;99914.20;1867984;76;22176;-62
2021/07/08 21:22:36;;;;;;;9.48;3.40;;;;;;;24.33;54.95;99921.86;1840212;76;38221;-63
2021/07/08 21:25:12;;;;;;;11.30;3.67;;;;;;;24.32;54.89;99924.07;1860566;76;22204;-63
2021/07/08 21:27:47;;;;;;;16.73;3.50;;;;;;;24.28;55.03;99918.95;1847239;76;22193;-63
2021/07/08 21:30:21;;;;;;;12.85;3.65;;;;;;;24.23;55.28;99918.63;1849057;76;22175;-62
2021/07/08 21:32:58;;;;;;;17.55;3.50;;;;;;;24.20;55.45;99924.46;1859557;76;22154;-61
2021/07/08 21:35:35;;;;;;;6.60;3.22;;;;;;;24.18;55.38;99926.27;1870582;76;22556;-63
2021/07/08 21:38:29;;;;;;;9.40;3.42;;;;;;;24.12;55.61;99922.05;1870575;76;22113;-62
2021/07/08 21:41:04;;;;;;;12.68;3.37;;;;;;;24.09;55.82;99919.94;1870558;76;22176;-63
2021/07/08 21:43:38;;;;;;;12.13;3.60;;;;;;;24.07;55.93;99923.95;1889912;76;22230;-65
2021/07/08 21:46:13;;;;;;;11.43;3.35;;;;;;;24.05;55.90;99921.35;1847085;76;22598;-62
2021/07/08 21:48:48;;;;;;;10.13;3.72;;;;;;;24.04;55.99;99919.63;1869158;76;22674;-63
2021/07/08 21:51:29;;;;;;;12.73;3.65;;;;;;;24.03;56.13;99924.48;1869546;76;22172;-61
2021/07/08 21:54:06;;;;;;;7.70;3.12;;;;;;;24.03;55.87;99931.07;1870512;76;22540;-63
2021/07/08 21:56:41;;;;;;;7.83;4.00;;;;;;;24.02;55.56;99929.36;1854784;76;38413;-64
2021/07/08 21:59:16;;;;;;;7.67;3.75;;;;;;;24.08;55.82;99930.09;1870633;76;22137;-63
2021/07/08 22:01:51;;;;;;;6.95;3.87;;;;;;;24.02;56.07;99922.77;1873888;76;28324;-60
2021/07/08 22:04:26;;;;;;;8.40;3.33;;;;;;;24.02;55.90;99924.09;1889976;76;22152;-60
2021/07/08 22:07:04;;;;;;;5.25;3.08;;;;;;;24.03;55.89;99927.58;1870461;76;20101;-61
2021/07/08 22:09:39;;;;;;;10.28;3.37;;;;;;;24.07;55.50;99934.94;1890003;76;22120;-63
2021/07/08 22:12:14;;;;;;;11.63;3.20;;;;;;;24.09;55.64;99927.84;1870807;76;22116;-61
2021/07/08 22:15:10;;;;;;;8.38;3.87;;;;;;;24.08;55.72;99926.13;1889885;76;22167;-62
2021/07/08 22:17:45;;;;;;;12.35;3.55;;;;;;;24.07;55.85;99925.27;1870623;76;22552;-60
2021/07/08 22:20:23;;;;;;;10.40;3.58;;;;;;;24.05;55.87;99927.94;1889996;76;20096;-61
2021/07/08 22:22:59;;;;;;;9.15;3.85;;;;;;;24.02;55.93;99929.36;1870447;76;22168;-60
2021/07/08 22:25:34;;;;;;;5.03;3.10;;;;;;;24.01;56.28;99934.20;1870701;76;22122;-60
2021/07/08 22:28:09;;;;;;;8.48;4.55;;;;;;;24.03;56.13;99940.77;1870687;76;22168;-61
2021/07/08 22:30:51;;;;;;;11.20;5.22;;;;;;;24.02;56.35;99932.45;1869864;76;22132;-60
2021/07/08 22:33:26;;;;;;;11.12;5.33;;;;;;;23.99;56.26;99938.68;1870626;76;22128;-62
2021/07/08 22:36:49;;;;;;;11.12;5.05;;;;;;;23.96;56.34;99936.11;1872764;76;22555;-63
2021/07/08 22:39:36;;;;;;;14.55;6.00;;;;;;;23.88;56.50;99932.83;1889883;76;22148;-60
2021/07/08 22:42:11;;;;;;;8.58;5.15;;;;;;;23.81;56.82;99934.80;1870695;76;22144;-63
2021/07/08 22:44:46;;;;;;;13.85;5.30;;;;;;;23.78;57.04;99926.94;1870705;76;22222;-62
2021/07/08 22:47:22;;;;;;;13.55;5.78;;;;;;;23.77;56.99;99931.81;1870478;76;22567;-63
2021/07/08 22:49:57;;;;;;;13.60;4.25;;;;;;;23.73;57.16;99933.25;1854626;76;28510;-62
2021/07/08 22:52:33;;;;;;;9.45;3.80;;;;;;;23.69;57.21;99932.91;1854650;76;38203;-59
2021/07/08 22:55:28;;;;;;;5.58;3.02;;;;;;;23.69;57.29;99935.09;1870600;76;22579;-59
2021/07/08 22:58:03;;;;;;;8.98;3.40;;;;;;;23.64;57.39;99937.45;1870609;76;22559;-60
2021/07/08 23:00:39;;;;;;;10.93;3.80;;;;;;;23.59;57.63;99934.93;1874013;76;28340;-61
2021/07/08 23:03:15;;;;;;;10.43;3.77;;;;;;;23.56;57.76;99947.73;1854648;76;28354;-60
2021/07/08 23:05:50;;;;;;;6.72;3.27;;;;;;;23.57;57.67;99941.55;1889963;76;22159;-62
2021/07/08 23:08:26;;;;;;;8.43;3.45;;;;;;;23.53;57.50;99951.74;1870509;76;22144;-61
2021/07/08 23:11:21;;;;;;;6.35;3.22;;;;;;;23.48;57.52;99946.19;1870530;76;22136;-61
2021/07/08 23:13:57;;;;;;;8.28;3.40;;;;;;;23.45;57.57;99944.50;1889975;76;22143;-60
2021/07/08 23:16:31;;;;;;;9.58;3.08;;;;;;;23.42;57.49;99943.27;1870814;76;22524;-60
2021/07/08 23:19:07;;;;;;;9.43;3.05;;;;;;;23.41;57.50;99946.82;1889990;76;22156;-61
2021/07/08 23:21:42;;;;;;;6.75;2.92;;;;;;;23.40;57.36;99951.66;1854632;76;27917;-59
2021/07/08 23:24:24;;;;;;;8.28;3.15;;;;;;;23.41;57.39;99944.19;1869834;76;22605;-62
2021/07/08 23:27:00;;;;;;;7.97;3.55;;;;;;;23.39;57.53;99940.72;1870769;76;22128;-62
2021/07/08 23:29:34;;;;;;;7.55;3.00;;;;;;;23.38;57.28;99941.60;1870669;76;22126;-63
2021/07/08 23:32:13;;;;;;;7.25;2.83;;;;;;;23.37;56.94;99938.11;1870609;76;22149;-61
2021/07/08 23:34:45;;;;;;;5.85;2.50;;;;;;;23.34;56.10;99943.47;1854951;76;27954;-58
2021/07/08 23:37:21;;;;;;;7.62;3.02;;;;;;;23.39;56.52;99935.45;1873925;76;27887;-60
2021/07/08 23:40:14;;;;;;;6.95;3.22;;;;;;;23.40;56.22;99936.70;1854653;76;28482;-62
